sensor_id;sensor_type;location;lat;lon;timestamp;temperature;humidity
4505;DHT22;2265;48.794;9.520;2023-09-19T00:00:30;18.60;98.00
4505;DHT22;2265;48.794;9.520;2023-09-19T00:02:59;18.50;98.00
4505;DHT22;2265;48.794;9.520;2023-09-19T00:05:29;18.60;98.00
4505;DHT22;2265;48.794;9.520;2023-09-19T00:07:57;18.50;98.00
4505;DHT22;2265;48.794;9.520;2023-09-19T00:10:25;18.60;98.00
4505;DHT22;2265;48.794;9.520;2023-09-19T00:12:53;18.60;98.00
4505;DHT22;2265;48.794;9.520;2023-09-19T00:15:21;18.60;98.00
4505;DHT22;2265;48.794;9.520;2023-09-19T00:17:48;18.70;98.00
4505;DHT22;2265;48.794;9.520;2023-09-19T00:20:18;18.70;98.00
4505;DHT22;2265;48.794;9.520;2023-09-19T00:22:48;18.70;98.00
4505;DHT22;2265;48.794;9.520;2023-09-19T00:25:16;18.70;98.00
4505;DHT22;2265;48.794;9.520;2023-09-19T00:27:44;18.70;98.00
4505;DHT22;2265;48.794;9.520;2023-09-19T00:30:13;18.60;98.00
4505;DHT22;2265;48.794;9.520;2023-09-19T00:32:45;18.50;98.00
4505;DHT22;2265;48.794;9.520;2023-09-19T00:35:14;18.60;98.00
4505;DHT22;2265;48.794;9.520;2023-09-19T00:37:42;18.70;98.00
4505;DHT22;2265;48.794;9.520;2023-09-19T00:40:11;18.80;98.00
4505;DHT22;2265;48.794;9.520;2023-09-19T00:42:39;18.70;98.00
4505;DHT22;2265;48.794;9.520;2023-09-19T00:45:07;18.60;98.00
4505;DHT22;2265;48.794;9.520;2023-09-19T00:47:37;18.60;98.00
4505;DHT22;2265;48.794;9.520;2023-09-19T00:50:05;18.50;98.00
4505;DHT22;2265;48.794;9.520;2023-09-19T00:52:34;18.60;98.00
4505;DHT22;2265;48.794;9.520;2023-09-19T00:55:02;18.50;98.00
4505;DHT22;2265;48.794;9.520;2023-09-19T00:57:31;18.60;98.00
4505;DHT22;2265;48.794;9.520;2023-09-19T01:00:00;18.40;98.00
4505;DHT22;2265;48.794;9.520;2023-09-19T01:02:31;18.40;98.00
4505;DHT22;2265;48.794;9.520;2023-09-19T01:04:58;18.40;98.00
4505;DHT22;2265;48.794;9.520;2023-09-19T01:07:26;18.40;98.00
4505;DHT22;2265;48.794;9.520;2023-09-19T01:09:56;18.50;98.00
4505;DHT22;2265;48.794;9.520;2023-09-19T01:12:47;18.50;98.00
4505;DHT22;2265;48.794;9.520;2023-09-19T01:15:21;18.40;98.00
4505;DHT22;2265;48.794;9.520;2023-09-19T01:17:57;18.40;98.00
4505;DHT22;2265;48.794;9.520;2023-09-19T01:20:33;18.50;98.00
4505;DHT22;2265;48.794;9.520;2023-09-19T01:23:12;18.50;98.00
4505;DHT22;2265;48.794;9.520;2023-09-19T01:28:53;18.50;98.00
4505;DHT22;2265;48.794;9.520;2023-09-19T01:31:25;18.50;98.00
4505;DHT22;2265;48.794;9.520;2023-09-19T01:33:59;18.50;98.00
4505;DHT22;2265;48.794;9.520;2023-09-19T01:36:32;18.50;98.00
4505;DHT22;2265;48.794;9.520;2023-09-19T01:39:02;18.40;98.00
4505;DHT22;2265;48.794;9.520;2023-09-19T01:41:45;18.40;98.00
4505;DHT22;2265;48.794;9.520;2023-09-19T01:44:20;18.50;98.00
4505;DHT22;2265;48.794;9.520;2023-09-19T01:46:50;18.40;98.00
4505;DHT22;2265;48.794;9.520;2023-09-19T01:49:26;18.40;98.00
4505;DHT22;2265;48.794;9.520;2023-09-19T01:52:02;18.50;98.00
4505;DHT22;2265;48.794;9.520;2023-09-19T01:54:48;18.40;98.00
4505;DHT22;2265;48.794;9.520;2023-09-19T01:57:28;18.50;98.00
4505;DHT22;2265;48.794;9.520;2023-09-19T02:00:01;18.50;98.00
4505;DHT22;2265;48.794;9.520;2023-09-19T02:02:34;18.50;98.00
4505;DHT22;2265;48.794;9.520;2023-09-19T02:05:01;18.60;98.00
4505;DHT22;2265;48.794;9.520;2023-09-19T02:07:29;18.50;98.00
4505;DHT22;2265;48.794;9.520;2023-09-19T02:09:57;18.50;98.00
4505;DHT22;2265;48.794;9.520;2023-09-19T02:12:25;18.40;98.00
4505;DHT22;2265;48.794;9.520;2023-09-19T02:14:53;18.50;98.00
4505;DHT22;2265;48.794;9.520;2023-09-19T02:17:20;18.60;98.00
4505;DHT22;2265;48.794;9.520;2023-09-19T02:19:48;18.60;98.00
4505;DHT22;2265;48.794;9.520;2023-09-19T02:22:15;18.60;98.00
4505;DHT22;2265;48.794;9.520;2023-09-19T02:24:42;18.60;98.00
4505;DHT22;2265;48.794;9.520;2023-09-19T02:27:09;18.50;98.00
4505;DHT22;2265;48.794;9.520;2023-09-19T02:29:38;18.50;98.00
4505;DHT22;2265;48.794;9.520;2023-09-19T02:32:05;18.50;98.00
4505;DHT22;2265;48.794;9.520;2023-09-19T02:34:36;18.60;98.00
4505;DHT22;2265;48.794;9.520;2023-09-19T02:37:06;18.50;98.00
4505;DHT22;2265;48.794;9.520;2023-09-19T02:39:34;18.60;98.00
4505;DHT22;2265;48.794;9.520;2023-09-19T02:42:02;18.50;98.00
4505;DHT22;2265;48.794;9.520;2023-09-19T02:44:29;18.50;98.00
4505;DHT22;2265;48.794;9.520;2023-09-19T02:46:57;18.50;98.00
4505;DHT22;2265;48.794;9.520;2023-09-19T02:49:24;18.40;98.00
4505;DHT22;2265;48.794;9.520;2023-09-19T02:51:51;18.40;98.00
4505;DHT22;2265;48.794;9.520;2023-09-19T02:54:20;18.40;98.00
4505;DHT22;2265;48.794;9.520;2023-09-19T02:56:49;18.30;98.00
4505;DHT22;2265;48.794;9.520;2023-09-19T02:59:19;18.30;98.00
4505;DHT22;2265;48.794;9.520;2023-09-19T03:01:48;18.30;98.00
4505;DHT22;2265;48.794;9.520;2023-09-19T03:04:16;18.40;98.00
4505;DHT22;2265;48.794;9.520;2023-09-19T03:06:45;18.30;98.00
4505;DHT22;2265;48.794;9.520;2023-09-19T03:09:14;18.30;98.00
4505;DHT22;2265;48.794;9.520;2023-09-19T03:11:44;18.30;98.00
4505;DHT22;2265;48.794;9.520;2023-09-19T03:14:12;18.30;98.00
4505;DHT22;2265;48.794;9.520;2023-09-19T03:16:41;18.30;98.00
4505;DHT22;2265;48.794;9.520;2023-09-19T03:19:10;18.20;98.00
4505;DHT22;2265;48.794;9.520;2023-09-19T03:21:37;18.20;98.00
4505;DHT22;2265;48.794;9.520;2023-09-19T03:24:05;18.20;98.00
4505;DHT22;2265;48.794;9.520;2023-09-19T03:26:33;18.20;98.00
4505;DHT22;2265;48.794;9.520;2023-09-19T03:29:03;18.30;98.00
4505;DHT22;2265;48.794;9.520;2023-09-19T03:31:33;18.20;98.00
4505;DHT22;2265;48.794;9.520;2023-09-19T03:34:02;18.20;98.00
4505;DHT22;2265;48.794;9.520;2023-09-19T03:36:30;18.20;98.00
4505;DHT22;2265;48.794;9.520;2023-09-19T03:39:00;18.30;98.00
4505;DHT22;2265;48.794;9.520;2023-09-19T03:41:29;18.20;98.00
4505;DHT22;2265;48.794;9.520;2023-09-19T03:43:56;18.20;98.00
4505;DHT22;2265;48.794;9.520;2023-09-19T03:46:28;18.20;98.00
4505;DHT22;2265;48.794;9.520;2023-09-19T03:48:55;18.20;98.00
4505;DHT22;2265;48.794;9.520;2023-09-19T03:51:22;18.10;98.00
4505;DHT22;2265;48.794;9.520;2023-09-19T03:53:49;18.20;98.00
4505;DHT22;2265;48.794;9.520;2023-09-19T03:56:16;18.10;98.00
4505;DHT22;2265;48.794;9.520;2023-09-19T03:58:44;18.10;98.00
4505;DHT22;2265;48.794;9.520;2023-09-19T04:01:11;18.20;98.00
4505;DHT22;2265;48.794;9.520;2023-09-19T04:03:40;18.20;98.00
4505;DHT22;2265;48.794;9.520;2023-09-19T04:06:13;18.20;98.00
4505;DHT22;2265;48.794;9.520;2023-09-19T04:08:40;18.10;98.00
4505;DHT22;2265;48.794;9.520;2023-09-19T04:11:07;18.20;98.00
4505;DHT22;2265;48.794;9.520;2023-09-19T04:13:35;18.20;98.00
4505;DHT22;2265;48.794;9.520;2023-09-19T04:16:02;18.10;98.00
4505;DHT22;2265;48.794;9.520;2023-09-19T04:18:29;18.20;98.00
4505;DHT22;2265;48.794;9.520;2023-09-19T04:21:00;18.20;98.00
4505;DHT22;2265;48.794;9.520;2023-09-19T04:23:29;18.10;98.00
4505;DHT22;2265;48.794;9.520;2023-09-19T04:25:57;18.30;98.00
4505;DHT22;2265;48.794;9.520;2023-09-19T04:28:24;18.30;98.00
4505;DHT22;2265;48.794;9.520;2023-09-19T04:30:53;18.40;98.00
4505;DHT22;2265;48.794;9.520;2023-09-19T04:33:20;18.50;98.00
4505;DHT22;2265;48.794;9.520;2023-09-19T04:35:49;18.50;98.00
4505;DHT22;2265;48.794;9.520;2023-09-19T04:38:18;18.50;98.00
4505;DHT22;2265;48.794;9.520;2023-09-19T04:40:45;18.50;98.00
4505;DHT22;2265;48.794;9.520;2023-09-19T04:43:13;18.50;98.00
4505;DHT22;2265;48.794;9.520;2023-09-19T04:45:41;18.50;98.00
4505;DHT22;2265;48.794;9.520;2023-09-19T04:48:08;18.40;98.00
4505;DHT22;2265;48.794;9.520;2023-09-19T04:50:36;18.30;98.00
4505;DHT22;2265;48.794;9.520;2023-09-19T04:53:04;18.30;98.00
4505;DHT22;2265;48.794;9.520;2023-09-19T04:55:34;18.10;98.00
4505;DHT22;2265;48.794;9.520;2023-09-19T04:58:01;18.00;98.00
4505;DHT22;2265;48.794;9.520;2023-09-19T05:00:29;18.00;98.00
4505;DHT22;2265;48.794;9.520;2023-09-19T05:03:00;18.00;98.00
4505;DHT22;2265;48.794;9.520;2023-09-19T05:05:29;18.20;98.00
4505;DHT22;2265;48.794;9.520;2023-09-19T05:07:56;18.20;98.00
4505;DHT22;2265;48.794;9.520;2023-09-19T05:10:24;18.20;98.00
4505;DHT22;2265;48.794;9.520;2023-09-19T05:12:54;18.20;98.00
4505;DHT22;2265;48.794;9.520;2023-09-19T05:15:21;18.20;98.00
4505;DHT22;2265;48.794;9.520;2023-09-19T05:17:49;18.30;98.00
4505;DHT22;2265;48.794;9.520;2023-09-19T05:20:17;18.30;98.00
4505;DHT22;2265;48.794;9.520;2023-09-19T05:22:57;18.20;98.00
4505;DHT22;2265;48.794;9.520;2023-09-19T05:25:24;18.30;98.00
4505;DHT22;2265;48.794;9.520;2023-09-19T05:27:57;18.30;98.00
4505;DHT22;2265;48.794;9.520;2023-09-19T05:30:25;18.30;98.00
4505;DHT22;2265;48.794;9.520;2023-09-19T05:32:54;18.40;98.00
4505;DHT22;2265;48.794;9.520;2023-09-19T05:35:21;18.40;98.00
4505;DHT22;2265;48.794;9.520;2023-09-19T05:37:50;18.30;98.00
4505;DHT22;2265;48.794;9.520;2023-09-19T05:40:17;18.30;98.00
4505;DHT22;2265;48.794;9.520;2023-09-19T05:42:46;18.20;98.00
4505;DHT22;2265;48.794;9.520;2023-09-19T05:45:14;18.10;98.00
4505;DHT22;2265;48.794;9.520;2023-09-19T05:47:44;18.00;98.00
4505;DHT22;2265;48.794;9.520;2023-09-19T05:50:12;18.00;98.00
4505;DHT22;2265;48.794;9.520;2023-09-19T05:52:40;18.10;98.00
4505;DHT22;2265;48.794;9.520;2023-09-19T05:55:10;18.20;98.00
4505;DHT22;2265;48.794;9.520;2023-09-19T05:57:40;18.00;98.00
4505;DHT22;2265;48.794;9.520;2023-09-19T06:00:10;17.90;98.00
4505;DHT22;2265;48.794;9.520;2023-09-19T06:02:39;17.80;98.00
4505;DHT22;2265;48.794;9.520;2023-09-19T06:05:07;17.80;98.00
4505;DHT22;2265;48.794;9.520;2023-09-19T06:07:36;17.70;98.00
4505;DHT22;2265;48.794;9.520;2023-09-19T06:10:05;17.90;98.00
4505;DHT22;2265;48.794;9.520;2023-09-19T06:12:38;17.90;98.00
4505;DHT22;2265;48.794;9.520;2023-09-19T06:15:06;17.90;98.00
4505;DHT22;2265;48.794;9.520;2023-09-19T06:17:34;17.80;98.00
4505;DHT22;2265;48.794;9.520;2023-09-19T06:20:06;17.70;98.00
4505;DHT22;2265;48.794;9.520;2023-09-19T06:22:38;17.40;98.00
4505;DHT22;2265;48.794;9.520;2023-09-19T06:25:07;17.20;98.00
4505;DHT22;2265;48.794;9.520;2023-09-19T06:27:37;17.00;98.00
4505;DHT22;2265;48.794;9.520;2023-09-19T06:30:06;16.80;98.00
4505;DHT22;2265;48.794;9.520;2023-09-19T06:32:34;16.80;98.00
4505;DHT22;2265;48.794;9.520;2023-09-19T06:35:01;16.70;98.00
4505;DHT22;2265;48.794;9.520;2023-09-19T06:37:30;16.60;98.00
4505;DHT22;2265;48.794;9.520;2023-09-19T06:39:57;16.60;98.00
4505;DHT22;2265;48.794;9.520;2023-09-19T06:42:24;16.60;98.00
4505;DHT22;2265;48.794;9.520;2023-09-19T06:44:51;16.40;98.00
4505;DHT22;2265;48.794;9.520;2023-09-19T06:47:18;16.40;98.00
4505;DHT22;2265;48.794;9.520;2023-09-19T06:49:46;16.30;98.00
4505;DHT22;2265;48.794;9.520;2023-09-19T06:52:13;16.40;98.00
4505;DHT22;2265;48.794;9.520;2023-09-19T06:54:42;16.50;98.00
4505;DHT22;2265;48.794;9.520;2023-09-19T06:57:09;16.50;98.00
4505;DHT22;2265;48.794;9.520;2023-09-19T06:59:36;16.50;98.00
4505;DHT22;2265;48.794;9.520;2023-09-19T07:02:04;16.50;98.00
4505;DHT22;2265;48.794;9.520;2023-09-19T07:04:32;16.50;98.00
4505;DHT22;2265;48.794;9.520;2023-09-19T07:06:59;16.60;98.00
4505;DHT22;2265;48.794;9.520;2023-09-19T07:09:27;16.80;98.00
4505;DHT22;2265;48.794;9.520;2023-09-19T07:11:55;16.90;98.00
4505;DHT22;2265;48.794;9.520;2023-09-19T07:14:23;17.00;98.00
4505;DHT22;2265;48.794;9.520;2023-09-19T07:16:50;17.00;98.00
4505;DHT22;2265;48.794;9.520;2023-09-19T07:19:17;17.20;98.00
4505;DHT22;2265;48.794;9.520;2023-09-19T07:21:44;17.40;98.00
4505;DHT22;2265;48.794;9.520;2023-09-19T07:24:13;17.40;98.00
4505;DHT22;2265;48.794;9.520;2023-09-19T07:26:40;17.50;98.00
4505;DHT22;2265;48.794;9.520;2023-09-19T07:29:10;17.70;98.00
4505;DHT22;2265;48.794;9.520;2023-09-19T07:31:37;17.80;98.00
4505;DHT22;2265;48.794;9.520;2023-09-19T07:34:05;18.00;98.00
4505;DHT22;2265;48.794;9.520;2023-09-19T07:36:34;18.00;98.00
4505;DHT22;2265;48.794;9.520;2023-09-19T07:39:03;18.10;98.00
4505;DHT22;2265;48.794;9.520;2023-09-19T07:41:32;18.10;98.00
4505;DHT22;2265;48.794;9.520;2023-09-19T07:43:59;18.20;98.00
4505;DHT22;2265;48.794;9.520;2023-09-19T07:46:28;18.20;98.00
4505;DHT22;2265;48.794;9.520;2023-09-19T07:48:56;18.20;98.00
4505;DHT22;2265;48.794;9.520;2023-09-19T07:51:24;18.30;98.00
4505;DHT22;2265;48.794;9.520;2023-09-19T07:53:52;18.40;98.00
4505;DHT22;2265;48.794;9.520;2023-09-19T07:56:20;18.40;98.00
4505;DHT22;2265;48.794;9.520;2023-09-19T07:58:48;18.50;98.00
4505;DHT22;2265;48.794;9.520;2023-09-19T08:01:16;18.50;98.00
4505;DHT22;2265;48.794;9.520;2023-09-19T08:03:44;18.50;98.00
4505;DHT22;2265;48.794;9.520;2023-09-19T08:06:12;18.70;98.00
4505;DHT22;2265;48.794;9.520;2023-09-19T08:08:40;18.80;98.00
4505;DHT22;2265;48.794;9.520;2023-09-19T08:11:07;19.00;98.00
4505;DHT22;2265;48.794;9.520;2023-09-19T08:13:37;18.90;98.00
4505;DHT22;2265;48.794;9.520;2023-09-19T08:16:09;19.10;98.00
4505;DHT22;2265;48.794;9.520;2023-09-19T08:18:36;19.20;98.00
4505;DHT22;2265;48.794;9.520;2023-09-19T08:21:07;19.20;98.00
4505;DHT22;2265;48.794;9.520;2023-09-19T08:23:36;19.20;98.00
4505;DHT22;2265;48.794;9.520;2023-09-19T08:26:04;19.20;98.00
4505;DHT22;2265;48.794;9.520;2023-09-19T08:28:33;19.40;98.00
4505;DHT22;2265;48.794;9.520;2023-09-19T08:31:04;19.40;98.00
4505;DHT22;2265;48.794;9.520;2023-09-19T08:33:32;19.50;98.00
4505;DHT22;2265;48.794;9.520;2023-09-19T08:36:00;19.60;98.00
4505;DHT22;2265;48.794;9.520;2023-09-19T08:38:28;19.80;98.00
4505;DHT22;2265;48.794;9.520;2023-09-19T08:40:57;19.70;98.00
4505;DHT22;2265;48.794;9.520;2023-09-19T08:43:25;19.80;98.00
4505;DHT22;2265;48.794;9.520;2023-09-19T08:48:23;20.00;98.00
4505;DHT22;2265;48.794;9.520;2023-09-19T08:50:57;20.00;98.00
4505;DHT22;2265;48.794;9.520;2023-09-19T08:53:34;20.10;98.00
4505;DHT22;2265;48.794;9.520;2023-09-19T08:56:03;20.10;98.00
4505;DHT22;2265;48.794;9.520;2023-09-19T08:58:41;20.20;98.00
4505;DHT22;2265;48.794;9.520;2023-09-19T09:01:10;20.20;98.00
4505;DHT22;2265;48.794;9.520;2023-09-19T09:03:40;20.40;98.00
4505;DHT22;2265;48.794;9.520;2023-09-19T09:06:14;20.30;98.00
4505;DHT22;2265;48.794;9.520;2023-09-19T09:08:43;20.20;98.00
4505;DHT22;2265;48.794;9.520;2023-09-19T09:11:11;20.10;98.00
4505;DHT22;2265;48.794;9.520;2023-09-19T09:13:38;20.00;98.00
4505;DHT22;2265;48.794;9.520;2023-09-19T09:16:08;19.90;98.00
4505;DHT22;2265;48.794;9.520;2023-09-19T09:18:38;19.80;98.00
4505;DHT22;2265;48.794;9.520;2023-09-19T09:21:05;19.90;98.00
4505;DHT22;2265;48.794;9.520;2023-09-19T09:23:32;19.70;98.00
4505;DHT22;2265;48.794;9.520;2023-09-19T09:26:01;19.60;98.00
4505;DHT22;2265;48.794;9.520;2023-09-19T09:28:32;19.60;98.00
4505;DHT22;2265;48.794;9.520;2023-09-19T09:31:01;19.60;98.00
4505;DHT22;2265;48.794;9.520;2023-09-19T09:33:34;19.60;98.00
4505;DHT22;2265;48.794;9.520;2023-09-19T09:36:03;19.60;98.00
4505;DHT22;2265;48.794;9.520;2023-09-19T09:38:43;19.60;98.00
4505;DHT22;2265;48.794;9.520;2023-09-19T09:41:13;19.70;98.00
4505;DHT22;2265;48.794;9.520;2023-09-19T09:43:53;19.90;98.00
4505;DHT22;2265;48.794;9.520;2023-09-19T09:46:21;20.00;98.00
4505;DHT22;2265;48.794;9.520;2023-09-19T09:49:26;20.10;98.00
4505;DHT22;2265;48.794;9.520;2023-09-19T09:51:59;20.10;98.00
4505;DHT22;2265;48.794;9.520;2023-09-19T09:54:31;20.20;98.00
4505;DHT22;2265;48.794;9.520;2023-09-19T09:57:05;20.20;98.00
4505;DHT22;2265;48.794;9.520;2023-09-19T09:59:53;20.00;98.00
4505;DHT22;2265;48.794;9.520;2023-09-19T10:02:25;20.00;98.00
4505;DHT22;2265;48.794;9.520;2023-09-19T10:04:55;20.10;98.00
4505;DHT22;2265;48.794;9.520;2023-09-19T10:07:36;20.10;98.00
4505;DHT22;2265;48.794;9.520;2023-09-19T10:10:07;20.20;98.00
4505;DHT22;2265;48.794;9.520;2023-09-19T10:12:55;20.30;98.00
4505;DHT22;2265;48.794;9.520;2023-09-19T10:15:31;20.30;98.00
4505;DHT22;2265;48.794;9.520;2023-09-19T10:17:59;20.50;98.00
4505;DHT22;2265;48.794;9.520;2023-09-19T10:20:28;20.40;98.00
4505;DHT22;2265;48.794;9.520;2023-09-19T10:23:06;20.70;98.00
4505;DHT22;2265;48.794;9.520;2023-09-19T10:25:37;21.00;98.00
4505;DHT22;2265;48.794;9.520;2023-09-19T10:28:08;21.00;98.00
4505;DHT22;2265;48.794;9.520;2023-09-19T10:30:42;21.20;98.00
4505;DHT22;2265;48.794;9.520;2023-09-19T10:33:11;21.60;98.00
4505;DHT22;2265;48.794;9.520;2023-09-19T10:35:40;21.70;98.00
4505;DHT22;2265;48.794;9.520;2023-09-19T10:38:11;21.60;98.00
4505;DHT22;2265;48.794;9.520;2023-09-19T10:40:39;21.90;98.00
4505;DHT22;2265;48.794;9.520;2023-09-19T10:43:13;21.60;98.00
4505;DHT22;2265;48.794;9.520;2023-09-19T10:45:44;21.80;98.00
4505;DHT22;2265;48.794;9.520;2023-09-19T10:48:16;22.30;98.00
4505;DHT22;2265;48.794;9.520;2023-09-19T10:50:48;22.50;98.00
4505;DHT22;2265;48.794;9.520;2023-09-19T10:53:17;22.40;98.00
4505;DHT22;2265;48.794;9.520;2023-09-19T10:55:51;22.20;98.00
4505;DHT22;2265;48.794;9.520;2023-09-19T10:58:32;21.90;98.00
4505;DHT22;2265;48.794;9.520;2023-09-19T11:01:05;21.80;98.00
4505;DHT22;2265;48.794;9.520;2023-09-19T11:03:38;21.70;98.00
4505;DHT22;2265;48.794;9.520;2023-09-19T11:06:12;21.90;98.00
4505;DHT22;2265;48.794;9.520;2023-09-19T11:09:02;21.90;98.00
4505;DHT22;2265;48.794;9.520;2023-09-19T11:11:49;21.80;98.00
4505;DHT22;2265;48.794;9.520;2023-09-19T11:14:37;22.10;98.00
4505;DHT22;2265;48.794;9.520;2023-09-19T11:17:34;22.30;98.00
4505;DHT22;2265;48.794;9.520;2023-09-19T11:20:30;22.80;98.00
4505;DHT22;2265;48.794;9.520;2023-09-19T11:23:23;23.60;98.00
4505;DHT22;2265;48.794;9.520;2023-09-19T11:25:53;24.10;98.00
4505;DHT22;2265;48.794;9.520;2023-09-19T11:28:33;24.40;98.00
4505;DHT22;2265;48.794;9.520;2023-09-19T11:34:45;25.00;97.90
4505;DHT22;2265;48.794;9.520;2023-09-19T11:40:32;25.20;96.40
4505;DHT22;2265;48.794;9.520;2023-09-19T11:43:30;24.80;98.00
4505;DHT22;2265;48.794;9.520;2023-09-19T11:46:09;24.80;97.10
4505;DHT22;2265;48.794;9.520;2023-09-19T11:48:39;25.10;97.80
4505;DHT22;2265;48.794;9.520;2023-09-19T11:51:14;25.40;96.80
4505;DHT22;2265;48.794;9.520;2023-09-19T11:56:13;25.70;95.50
4505;DHT22;2265;48.794;9.520;2023-09-19T11:58:41;25.80;96.40
4505;DHT22;2265;48.794;9.520;2023-09-19T12:01:12;25.50;95.20
4505;DHT22;2265;48.794;9.520;2023-09-19T12:03:47;25.00;95.70
4505;DHT22;2265;48.794;9.520;2023-09-19T12:06:16;24.70;96.50
4505;DHT22;2265;48.794;9.520;2023-09-19T12:08:44;24.30;96.60
4505;DHT22;2265;48.794;9.520;2023-09-19T12:11:13;24.50;96.50
4505;DHT22;2265;48.794;9.520;2023-09-19T12:13:44;24.70;97.10
4505;DHT22;2265;48.794;9.520;2023-09-19T12:16:16;24.50;95.60
4505;DHT22;2265;48.794;9.520;2023-09-19T12:18:44;24.00;95.40
4505;DHT22;2265;48.794;9.520;2023-09-19T12:21:27;24.20;96.40
4505;DHT22;2265;48.794;9.520;2023-09-19T12:24:11;24.30;95.80
4505;DHT22;2265;48.794;9.520;2023-09-19T12:26:40;24.20;96.80
4505;DHT22;2265;48.794;9.520;2023-09-19T12:29:16;24.60;97.40
4505;DHT22;2265;48.794;9.520;2023-09-19T12:31:49;25.00;94.10
4505;DHT22;2265;48.794;9.520;2023-09-19T12:34:19;25.40;94.50
4505;DHT22;2265;48.794;9.520;2023-09-19T12:37:03;25.90;93.50
4505;DHT22;2265;48.794;9.520;2023-09-19T12:39:32;25.80;91.70
4505;DHT22;2265;48.794;9.520;2023-09-19T12:42:01;25.30;92.50
4505;DHT22;2265;48.794;9.520;2023-09-19T12:44:30;25.20;95.20
4505;DHT22;2265;48.794;9.520;2023-09-19T12:46:59;25.60;93.10
4505;DHT22;2265;48.794;9.520;2023-09-19T12:49:26;25.90;92.60
4505;DHT22;2265;48.794;9.520;2023-09-19T12:51:58;26.30;93.20
4505;DHT22;2265;48.794;9.520;2023-09-19T12:54:37;26.70;92.20
4505;DHT22;2265;48.794;9.520;2023-09-19T12:57:05;26.90;92.80
4505;DHT22;2265;48.794;9.520;2023-09-19T12:59:32;26.90;89.20
4505;DHT22;2265;48.794;9.520;2023-09-19T13:02:05;27.10;89.00
4505;DHT22;2265;48.794;9.520;2023-09-19T13:04:39;26.90;90.40
4505;DHT22;2265;48.794;9.520;2023-09-19T13:07:39;27.20;90.80
4505;DHT22;2265;48.794;9.520;2023-09-19T13:10:08;27.30;89.60
4505;DHT22;2265;48.794;9.520;2023-09-19T13:12:37;27.20;90.50
4505;DHT22;2265;48.794;9.520;2023-09-19T13:15:08;27.30;89.90
4505;DHT22;2265;48.794;9.520;2023-09-19T13:17:46;27.30;90.10
4505;DHT22;2265;48.794;9.520;2023-09-19T13:20:22;27.50;89.00
4505;DHT22;2265;48.794;9.520;2023-09-19T13:22:54;26.90;89.40
4505;DHT22;2265;48.794;9.520;2023-09-19T13:25:24;26.90;89.10
4505;DHT22;2265;48.794;9.520;2023-09-19T13:27:53;26.90;90.90
4505;DHT22;2265;48.794;9.520;2023-09-19T13:30:23;26.90;89.60
4505;DHT22;2265;48.794;9.520;2023-09-19T13:32:52;27.00;89.40
4505;DHT22;2265;48.794;9.520;2023-09-19T13:35:19;27.20;88.20
4505;DHT22;2265;48.794;9.520;2023-09-19T13:37:47;26.80;88.90
4505;DHT22;2265;48.794;9.520;2023-09-19T13:40:18;26.00;90.00
4505;DHT22;2265;48.794;9.520;2023-09-19T13:42:46;26.00;90.40
4505;DHT22;2265;48.794;9.520;2023-09-19T13:45:19;26.60;91.50
4505;DHT22;2265;48.794;9.520;2023-09-19T13:47:47;27.10;88.50
4505;DHT22;2265;48.794;9.520;2023-09-19T13:50:15;26.90;89.90
4505;DHT22;2265;48.794;9.520;2023-09-19T13:52:42;26.40;89.20
4505;DHT22;2265;48.794;9.520;2023-09-19T13:55:09;25.70;91.80
4505;DHT22;2265;48.794;9.520;2023-09-19T13:57:47;25.60;91.80
4505;DHT22;2265;48.794;9.520;2023-09-19T14:00:15;26.00;92.80
4505;DHT22;2265;48.794;9.520;2023-09-19T14:02:45;26.20;90.50
4505;DHT22;2265;48.794;9.520;2023-09-19T14:05:16;26.30;90.00
4505;DHT22;2265;48.794;9.520;2023-09-19T14:07:44;26.40;90.30
4505;DHT22;2265;48.794;9.520;2023-09-19T14:10:13;26.50;89.50
4505;DHT22;2265;48.794;9.520;2023-09-19T14:12:40;26.90;90.70
4505;DHT22;2265;48.794;9.520;2023-09-19T14:15:09;27.20;88.50
4505;DHT22;2265;48.794;9.520;2023-09-19T14:17:37;27.20;87.80
4505;DHT22;2265;48.794;9.520;2023-09-19T14:20:05;27.40;87.00
4505;DHT22;2265;48.794;9.520;2023-09-19T14:22:33;27.80;88.10
4505;DHT22;2265;48.794;9.520;2023-09-19T14:25:00;28.10;85.50
4505;DHT22;2265;48.794;9.520;2023-09-19T14:27:27;28.00;86.80
4505;DHT22;2265;48.794;9.520;2023-09-19T14:29:55;28.00;85.80
4505;DHT22;2265;48.794;9.520;2023-09-19T14:32:23;27.80;86.20
4505;DHT22;2265;48.794;9.520;2023-09-19T14:34:53;27.70;87.20
4505;DHT22;2265;48.794;9.520;2023-09-19T14:37:20;27.50;86.90
4505;DHT22;2265;48.794;9.520;2023-09-19T14:39:47;27.20;86.90
4505;DHT22;2265;48.794;9.520;2023-09-19T14:42:15;27.00;88.00
4505;DHT22;2265;48.794;9.520;2023-09-19T14:44:43;26.80;88.80
4505;DHT22;2265;48.794;9.520;2023-09-19T14:47:10;26.50;89.30
4505;DHT22;2265;48.794;9.520;2023-09-19T14:49:40;26.50;90.40
4505;DHT22;2265;48.794;9.520;2023-09-19T14:52:08;26.50;92.50
4505;DHT22;2265;48.794;9.520;2023-09-19T14:54:36;26.40;89.60
4505;DHT22;2265;48.794;9.520;2023-09-19T14:57:06;26.40;91.60
4505;DHT22;2265;48.794;9.520;2023-09-19T14:59:34;26.50;91.30
4505;DHT22;2265;48.794;9.520;2023-09-19T15:02:03;26.60;91.80
4505;DHT22;2265;48.794;9.520;2023-09-19T15:04:30;26.90;90.60
4505;DHT22;2265;48.794;9.520;2023-09-19T15:06:58;27.10;89.80
4505;DHT22;2265;48.794;9.520;2023-09-19T15:09:26;27.30;86.70
4505;DHT22;2265;48.794;9.520;2023-09-19T15:11:53;27.70;88.30
4505;DHT22;2265;48.794;9.520;2023-09-19T15:14:20;27.90;88.20
4505;DHT22;2265;48.794;9.520;2023-09-19T15:16:47;27.90;89.00
4505;DHT22;2265;48.794;9.520;2023-09-19T15:19:15;28.00;87.60
4505;DHT22;2265;48.794;9.520;2023-09-19T15:21:42;28.10;85.30
4505;DHT22;2265;48.794;9.520;2023-09-19T15:24:12;28.00;85.60
4505;DHT22;2265;48.794;9.520;2023-09-19T15:26:42;27.90;85.70
4505;DHT22;2265;48.794;9.520;2023-09-19T15:29:10;27.40;86.00
4505;DHT22;2265;48.794;9.520;2023-09-19T15:31:38;27.10;86.90
4505;DHT22;2265;48.794;9.520;2023-09-19T15:34:05;26.50;86.20
4505;DHT22;2265;48.794;9.520;2023-09-19T15:36:33;26.60;88.30
4505;DHT22;2265;48.794;9.520;2023-09-19T15:39:01;26.70;88.20
4505;DHT22;2265;48.794;9.520;2023-09-19T15:41:32;27.00;89.10
4505;DHT22;2265;48.794;9.520;2023-09-19T15:44:00;26.90;87.00
4505;DHT22;2265;48.794;9.520;2023-09-19T15:46:29;26.60;87.50
4505;DHT22;2265;48.794;9.520;2023-09-19T15:48:59;26.20;88.60
4505;DHT22;2265;48.794;9.520;2023-09-19T15:51:26;26.00;89.60
4505;DHT22;2265;48.794;9.520;2023-09-19T15:53:54;26.10;89.90
4505;DHT22;2265;48.794;9.520;2023-09-19T15:56:23;26.40;90.00
4505;DHT22;2265;48.794;9.520;2023-09-19T15:58:53;26.70;88.00
4505;DHT22;2265;48.794;9.520;2023-09-19T16:01:21;26.80;88.10
4505;DHT22;2265;48.794;9.520;2023-09-19T16:03:49;27.10;89.10
4505;DHT22;2265;48.794;9.520;2023-09-19T16:06:19;27.00;87.60
4505;DHT22;2265;48.794;9.520;2023-09-19T16:08:48;26.90;89.00
4505;DHT22;2265;48.794;9.520;2023-09-19T16:11:15;26.60;89.60
4505;DHT22;2265;48.794;9.520;2023-09-19T16:13:43;26.30;89.10
4505;DHT22;2265;48.794;9.520;2023-09-19T16:16:14;26.10;91.30
4505;DHT22;2265;48.794;9.520;2023-09-19T16:18:45;26.00;90.40
4505;DHT22;2265;48.794;9.520;2023-09-19T16:21:14;26.30;90.40
4505;DHT22;2265;48.794;9.520;2023-09-19T16:23:44;26.60;90.00
4505;DHT22;2265;48.794;9.520;2023-09-19T16:26:11;27.00;89.00
4505;DHT22;2265;48.794;9.520;2023-09-19T16:28:39;27.20;89.60
4505;DHT22;2265;48.794;9.520;2023-09-19T16:31:07;27.50;89.20
4505;DHT22;2265;48.794;9.520;2023-09-19T16:33:37;27.60;87.20
4505;DHT22;2265;48.794;9.520;2023-09-19T16:36:07;27.20;86.90